Time;durP1;ratioP1;P1;durP2;ratioP2;P2;SDS_P1;SDS_P2;PMS_P1;PMS_P2;Temp;Humidity;BMP_temperature;BMP_pressure;BME280_temperature;BME280_humidity;BME280_pressure;Samples;Min_cycle;Max_cycle;Signal;HPM_P1;HPM_P2
2023/09/14 00:00:29;;;;;;;0.20;0.20;;;10.10;99.90;;;;;;5039506;28;20040;-69
2023/09/14 00:02:55;;;;;;;0.00;0.00;;;10.10;99.90;;;;;;5041431;28;20510;-70
2023/09/14 00:05:21;;;;;;;0.08;0.08;;;10.10;99.90;;;;;;5043717;28;20051;-70
2023/09/14 00:07:46;;;;;;;0.00;0.00;;;10.10;99.90;;;;;;5045022;28;20074;-69
2023/09/14 00:10:12;;;;;;;0.00;0.00;;;10.10;99.90;;;;;;5047696;28;20044;-69
2023/09/14 00:12:38;;;;;;;0.00;0.00;;;10.00;99.90;;;;;;5041981;28;20041;-70
2023/09/14 00:15:04;;;;;;;0.20;0.13;;;10.00;99.90;;;;;;5043533;28;20403;-70
2023/09/14 00:17:29;;;;;;;0.00;0.00;;;9.90;99.90;;;;;;5044285;28;20131;-70
2023/09/14 00:19:55;;;;;;;0.00;0.00;;;10.00;99.90;;;;;;5039695;28;20150;-69
2023/09/14 00:22:20;;;;;;;0.00;0.00;;;9.90;99.90;;;;;;5042116;28;20060;-69
2023/09/14 00:24:46;;;;;;;0.00;0.00;;;9.90;99.90;;;;;;5044652;28;20029;-69
2023/09/14 00:27:12;;;;;;;0.00;0.00;;;9.90;99.90;;;;;;5047108;28;20082;-69
2023/09/14 00:29:37;;;;;;;0.30;0.30;;;9.90;99.90;;;;;;5038080;28;20119;-69
2023/09/14 00:32:03;;;;;;;0.00;0.00;;;9.80;99.90;;;;;;5040371;28;20041;-69
2023/09/14 00:34:29;;;;;;;0.30;0.10;;;9.70;99.90;;;;;;5037831;28;20544;-69
2023/09/14 00:36:54;;;;;;;0.17;0.10;;;9.60;99.90;;;;;;5043757;28;20183;-68
2023/09/14 00:39:20;;;;;;;0.00;0.00;;;9.50;99.90;;;;;;5043658;28;20833;-68
2023/09/14 00:41:45;;;;;;;0.00;0.00;;;9.50;99.90;;;;;;5052444;28;20060;-69
2023/09/14 00:44:11;;;;;;;0.00;0.00;;;9.50;99.90;;;;;;5039078;28;21829;-69
2023/09/14 00:46:36;;;;;;;0.10;0.10;;;9.50;99.90;;;;;;5042809;28;20588;-69
2023/09/14 00:49:02;;;;;;;0.00;0.00;;;9.50;99.90;;;;;;5042075;28;20028;-69
2023/09/14 00:51:29;;;;;;;2.65;0.25;;;9.50;99.90;;;;;;5043793;28;20123;-69
2023/09/14 00:53:55;;;;;;;0.00;0.00;;;9.60;99.90;;;;;;5044823;28;20661;-69
2023/09/14 00:56:21;;;;;;;0.00;0.00;;;9.50;99.90;;;;;;5044311;28;20049;-69
2023/09/14 00:58:47;;;;;;;0.15;0.10;;;9.50;99.90;;;;;;5043066;28;20084;-69
2023/09/14 01:01:14;;;;;;;0.00;0.00;;;9.50;99.90;;;;;;5039191;28;20053;-69
2023/09/14 01:03:40;;;;;;;0.30;0.30;;;9.50;99.90;;;;;;5046968;28;21428;-69
2023/09/14 01:06:06;;;;;;;0.00;0.00;;;9.60;99.90;;;;;;5042534;28;20151;-69
2023/09/14 01:08:32;;;;;;;0.10;0.10;;;9.60;99.90;;;;;;5046543;28;20112;-69
2023/09/14 01:10:58;;;;;;;0.10;0.10;;;9.60;99.90;;;;;;5039629;28;20652;-69
2023/09/14 01:13:33;;;;;;;0.00;0.00;;;9.50;99.90;;;;;;5037241;28;20067;-69
2023/09/14 01:16:24;;;;;;;0.00;0.00;;;9.40;99.90;;;;;;5041159;28;20090;-69
2023/09/14 01:19:22;;;;;;;0.00;0.00;;;9.40;99.90;;;;;;5074070;28;20048;-69
2023/09/14 01:22:01;;;;;;;0.10;0.10;;;9.30;99.90;;;;;;5039373;28;20694;-69
2023/09/14 01:24:46;;;;;;;0.10;0.10;;;9.30;99.90;;;;;;5041146;28;20044;-69
2023/09/14 01:27:12;;;;;;;0.00;0.00;;;9.40;99.90;;;;;;5039516;28;20029;-69
2023/09/14 01:29:40;;;;;;;0.00;0.00;;;9.40;99.90;;;;;;5060265;28;20048;-69
2023/09/14 01:32:06;;;;;;;0.10;0.10;;;9.40;99.90;;;;;;5058825;28;20037;-69
2023/09/14 01:34:32;;;;;;;0.00;0.00;;;9.40;99.90;;;;;;5043775;28;20071;-69
2023/09/14 01:36:59;;;;;;;0.03;0.03;;;9.40;99.90;;;;;;5041506;28;20066;-69
2023/09/14 01:39:27;;;;;;;0.00;0.00;;;9.40;99.90;;;;;;5039916;28;20072;-69
2023/09/14 01:41:57;;;;;;;0.30;0.20;;;9.30;99.90;;;;;;5037166;28;20056;-69
2023/09/14 01:44:27;;;;;;;0.10;0.10;;;9.30;99.90;;;;;;5021797;28;20111;-69
2023/09/14 01:46:53;;;;;;;0.00;0.00;;;9.30;99.90;;;;;;5038502;28;20617;-69
2023/09/14 01:49:19;;;;;;;0.05;0.05;;;9.30;99.90;;;;;;5037212;28;20369;-69
2023/09/14 01:51:45;;;;;;;0.00;0.00;;;9.20;99.90;;;;;;5074277;28;20052;-69
2023/09/14 01:54:10;;;;;;;0.00;0.00;;;9.10;99.90;;;;;;5038603;28;20083;-69
2023/09/14 01:56:36;;;;;;;0.30;0.30;;;9.10;99.90;;;;;;5035941;28;20495;-69
2023/09/14 01:59:02;;;;;;;0.00;0.00;;;9.00;99.90;;;;;;5032911;28;20036;-69
2023/09/14 02:01:28;;;;;;;0.00;0.00;;;9.00;99.90;;;;;;5038385;28;20422;-69
2023/09/14 02:03:54;;;;;;;0.10;0.10;;;8.90;99.90;;;;;;5069869;28;20097;-68
2023/09/14 02:06:20;;;;;;;0.10;0.10;;;8.90;99.90;;;;;;5041121;28;20040;-69
2023/09/14 02:08:45;;;;;;;0.00;0.00;;;8.90;99.90;;;;;;5035967;28;21212;-68
2023/09/14 02:11:13;;;;;;;0.10;0.10;;;8.90;99.90;;;;;;5039772;28;20103;-68
2023/09/14 02:13:39;;;;;;;0.00;0.00;;;8.90;99.90;;;;;;5036792;28;20052;-69
2023/09/14 02:16:05;;;;;;;0.00;0.00;;;8.90;99.90;;;;;;5038206;28;20054;-69
2023/09/14 02:18:30;;;;;;;0.55;0.55;;;8.80;99.90;;;;;;5038125;28;20041;-69
2023/09/14 02:20:56;;;;;;;0.10;0.10;;;8.80;99.90;;;;;;5043751;28;20947;-69
2023/09/14 02:23:22;;;;;;;0.00;0.00;;;8.80;99.90;;;;;;5038266;28;20041;-69
2023/09/14 02:25:49;;;;;;;0.13;0.13;;;8.80;99.90;;;;;;5042488;28;20561;-69
2023/09/14 02:28:15;;;;;;;0.00;0.00;;;8.70;99.90;;;;;;5038152;28;20076;-69
2023/09/14 02:30:41;;;;;;;0.15;0.15;;;8.70;99.90;;;;;;5071814;28;20051;-69
2023/09/14 02:33:07;;;;;;;0.00;0.00;;;8.80;99.90;;;;;;5065083;28;20380;-69
2023/09/14 02:35:38;;;;;;;0.10;0.10;;;8.70;99.90;;;;;;5024142;28;20094;-69
2023/09/14 02:38:04;;;;;;;0.00;0.00;;;8.70;99.90;;;;;;5040908;28;20524;-70
2023/09/14 02:40:30;;;;;;;0.00;0.00;;;8.70;99.90;;;;;;5040163;28;20036;-69
2023/09/14 02:42:56;;;;;;;0.00;0.00;;;8.70;99.90;;;;;;5021223;28;20127;-69
2023/09/14 02:45:23;;;;;;;0.00;0.00;;;8.70;99.90;;;;;;5022333;28;20147;-69
2023/09/14 02:47:49;;;;;;;0.00;0.00;;;8.70;99.90;;;;;;5031495;28;20047;-69
2023/09/14 02:50:14;;;;;;;0.00;0.00;;;8.80;99.90;;;;;;5039430;28;20037;-70
2023/09/14 02:52:40;;;;;;;0.00;0.00;;;8.70;99.90;;;;;;5036570;28;20036;-70
2023/09/14 02:55:06;;;;;;;0.00;0.00;;;8.70;99.90;;;;;;5044679;28;20040;-69
2023/09/14 02:57:31;;;;;;;0.00;0.00;;;8.70;99.90;;;;;;5038959;28;20090;-70
2023/09/14 02:59:58;;;;;;;0.00;0.00;;;8.70;99.90;;;;;;5042790;28;20043;-69
2023/09/14 03:02:23;;;;;;;0.00;0.00;;;8.70;99.90;;;;;;5037413;28;20044;-70
2023/09/14 03:04:49;;;;;;;0.00;0.00;;;8.70;99.90;;;;;;5039273;28;20153;-69
2023/09/14 03:07:15;;;;;;;0.70;0.30;;;8.80;99.90;;;;;;5037192;28;20040;-69
2023/09/14 03:09:41;;;;;;;0.10;0.10;;;8.80;99.90;;;;;;5042481;28;20102;-69
2023/09/14 03:12:07;;;;;;;0.00;0.00;;;8.80;99.90;;;;;;5040974;28;20044;-69
2023/09/14 03:14:33;;;;;;;0.10;0.10;;;8.80;99.90;;;;;;5075822;28;20191;-70
2023/09/14 03:16:59;;;;;;;0.00;0.00;;;8.80;99.90;;;;;;5041714;28;20562;-70
2023/09/14 03:19:25;;;;;;;0.00;0.00;;;8.70;99.90;;;;;;5043498;28;20569;-70
2023/09/14 03:21:50;;;;;;;0.00;0.00;;;8.70;99.90;;;;;;5044273;28;20055;-70
2023/09/14 03:24:16;;;;;;;0.00;0.00;;;8.70;99.90;;;;;;5037020;28;20028;-70
2023/09/14 03:26:42;;;;;;;0.10;0.10;;;8.60;99.90;;;;;;5033208;28;20037;-70
2023/09/14 03:29:07;;;;;;;0.00;0.00;;;8.50;99.90;;;;;;5020598;28;20047;-70
2023/09/14 03:31:34;;;;;;;0.80;0.10;;;8.50;99.90;;;;;;5043278;28;20040;-70
2023/09/14 03:34:00;;;;;;;0.10;0.10;;;8.50;99.90;;;;;;5039842;28;20036;-70
2023/09/14 03:36:27;;;;;;;0.00;0.00;;;8.50;99.90;;;;;;5040053;28;20048;-70
2023/09/14 03:38:52;;;;;;;0.22;0.15;;;8.50;99.90;;;;;;5043626;28;20045;-70
2023/09/14 03:41:18;;;;;;;0.00;0.00;;;8.40;99.90;;;;;;5045710;28;20558;-69
2023/09/14 03:43:43;;;;;;;0.10;0.10;;;8.30;99.90;;;;;;5043078;28;20083;-70
2023/09/14 03:46:13;;;;;;;0.00;0.00;;;8.30;99.90;;;;;;5042198;28;20123;-70
2023/09/14 03:48:38;;;;;;;0.00;0.00;;;8.40;99.90;;;;;;5044315;28;20429;-70
2023/09/14 03:51:04;;;;;;;0.10;0.10;;;8.40;99.90;;;;;;5048152;28;20033;-69
2023/09/14 03:53:30;;;;;;;0.10;0.10;;;8.40;99.90;;;;;;5042327;28;20044;-70
2023/09/14 03:55:57;;;;;;;0.00;0.00;;;8.50;99.90;;;;;;5074798;28;20403;-70
2023/09/14 03:58:23;;;;;;;0.55;0.20;;;8.50;99.90;;;;;;5041533;28;20044;-70
2023/09/14 04:00:49;;;;;;;0.00;0.00;;;8.50;99.90;;;;;;5039909;28;20082;-70
2023/09/14 04:03:17;;;;;;;0.17;0.17;;;8.50;99.90;;;;;;5020560;28;20041;-70
2023/09/14 04:05:43;;;;;;;1.52;0.25;;;8.60;99.90;;;;;;5026257;28;20059;-70
2023/09/14 04:08:08;;;;;;;0.00;0.00;;;8.50;99.90;;;;;;5067299;28;20036;-70
2023/09/14 04:10:37;;;;;;;0.00;0.00;;;8.50;99.90;;;;;;5068713;28;20127;-70
2023/09/14 04:13:32;;;;;;;0.00;0.00;;;8.50;99.90;;;;;;5038130;28;20545;-69
2023/09/14 04:15:59;;;;;;;0.32;0.17;;;8.50;99.90;;;;;;5037976;28;20045;-69
2023/09/14 04:18:26;;;;;;;0.55;0.32;;;8.40;99.90;;;;;;5037394;28;20123;-69
2023/09/14 04:20:52;;;;;;;0.00;0.00;;;8.40;99.90;;;;;;5043233;28;20040;-69
2023/09/14 04:23:19;;;;;;;0.00;0.00;;;8.40;99.90;;;;;;5034921;28;20446;-69
2023/09/14 04:25:45;;;;;;;0.10;0.10;;;8.40;99.90;;;;;;5067376;28;20045;-69
2023/09/14 04:28:12;;;;;;;0.17;0.10;;;8.30;99.90;;;;;;5037929;28;20087;-69
2023/09/14 04:30:43;;;;;;;0.08;0.08;;;8.40;99.90;;;;;;5047324;28;20041;-69
2023/09/14 04:33:10;;;;;;;0.00;0.00;;;8.40;99.90;;;;;;5071033;28;20044;-69
2023/09/14 04:35:36;;;;;;;0.20;0.20;;;8.40;99.90;;;;;;5037657;28;20045;-69
2023/09/14 04:38:01;;;;;;;0.10;0.10;;;8.40;99.90;;;;;;5071517;28;20135;-69
2023/09/14 04:40:27;;;;;;;0.00;0.00;;;8.30;99.90;;;;;;5043606;28;20114;-69
2023/09/14 04:42:52;;;;;;;0.17;0.17;;;8.30;99.90;;;;;;5040761;28;20036;-69
2023/09/14 04:45:18;;;;;;;0.10;0.10;;;8.30;99.90;;;;;;5041420;28;20432;-69
2023/09/14 04:47:43;;;;;;;0.57;0.57;;;8.20;99.90;;;;;;5040756;28;20062;-69
2023/09/14 04:50:09;;;;;;;0.00;0.00;;;8.30;99.90;;;;;;5038662;28;20060;-69
2023/09/14 04:52:35;;;;;;;0.30;0.30;;;8.20;99.90;;;;;;5070168;28;20133;-69
2023/09/14 04:55:00;;;;;;;0.00;0.00;;;8.20;99.90;;;;;;5035807;28;21238;-69
2023/09/14 04:57:26;;;;;;;0.00;0.00;;;8.20;99.90;;;;;;5069886;28;20120;-69
2023/09/14 04:59:51;;;;;;;0.00;0.00;;;8.20;99.90;;;;;;5034947;28;20132;-69
2023/09/14 05:02:17;;;;;;;0.00;0.00;;;8.20;99.90;;;;;;5039736;28;20176;-68
2023/09/14 05:04:42;;;;;;;0.40;0.22;;;8.30;99.90;;;;;;5020631;28;20127;-69
2023/09/14 05:07:08;;;;;;;0.00;0.00;;;8.30;99.90;;;;;;5051772;28;20033;-69
2023/09/14 05:09:33;;;;;;;0.85;0.10;;;8.30;99.90;;;;;;5046450;28;20475;-69
2023/09/14 05:11:59;;;;;;;0.10;0.10;;;8.30;99.90;;;;;;5037125;28;20036;-69
2023/09/14 05:14:25;;;;;;;0.05;0.05;;;8.30;99.90;;;;;;5036881;28;20041;-69
2023/09/14 05:16:50;;;;;;;0.22;0.20;;;8.30;99.90;;;;;;5074485;28;20391;-69
2023/09/14 05:19:17;;;;;;;0.32;0.30;;;8.30;99.90;;;;;;5070374;28;20044;-69
2023/09/14 05:21:42;;;;;;;0.10;0.10;;;8.30;99.90;;;;;;5069625;28;20041;-69
2023/09/14 05:24:08;;;;;;;0.10;0.10;;;8.30;99.90;;;;;;5036343;28;20044;-69
2023/09/14 05:26:33;;;;;;;0.00;0.00;;;8.30;99.90;;;;;;5039194;28;20082;-69
2023/09/14 05:28:59;;;;;;;0.60;0.30;;;8.20;99.90;;;;;;5038328;28;20116;-69
2023/09/14 05:31:24;;;;;;;0.00;0.00;;;8.20;99.90;;;;;;5073356;28;20101;-69
2023/09/14 05:33:50;;;;;;;0.10;0.10;;;8.10;99.90;;;;;;5053381;28;20124;-69
2023/09/14 05:36:15;;;;;;;0.00;0.00;;;8.10;99.90;;;;;;5043540;28;20098;-69
2023/09/14 05:38:41;;;;;;;0.00;0.00;;;8.00;99.90;;;;;;5053177;28;20048;-69
2023/09/14 05:41:06;;;;;;;0.08;0.08;;;8.10;99.90;;;;;;5050999;28;20044;-69
2023/09/14 05:43:32;;;;;;;0.00;0.00;;;8.00;99.90;;;;;;5058226;28;20033;-69
2023/09/14 05:45:59;;;;;;;0.17;0.17;;;8.00;99.90;;;;;;5063815;28;20399;-69
2023/09/14 05:48:24;;;;;;;0.47;0.20;;;8.00;99.90;;;;;;5032652;28;20040;-68
2023/09/14 05:50:50;;;;;;;0.10;0.10;;;8.00;99.90;;;;;;5029873;28;20044;-69
2023/09/14 05:53:15;;;;;;;0.10;0.10;;;8.10;99.90;;;;;;5034321;28;20118;-69
2023/09/14 05:55:41;;;;;;;0.13;0.13;;;8.20;99.90;;;;;;5032938;28;20037;-69
2023/09/14 05:58:06;;;;;;;0.10;0.10;;;8.30;99.90;;;;;;5033818;28;20033;-68
2023/09/14 06:00:33;;;;;;;0.10;0.05;;;8.30;99.90;;;;;;5033278;28;20167;-69
2023/09/14 06:02:58;;;;;;;0.10;0.10;;;8.30;99.90;;;;;;5037034;28;20040;-69
2023/09/14 06:05:24;;;;;;;0.00;0.00;;;8.40;99.90;;;;;;5033819;28;20045;-69
2023/09/14 06:07:49;;;;;;;0.20;0.20;;;8.50;99.90;;;;;;5051693;28;20048;-69
2023/09/14 06:10:15;;;;;;;0.00;0.00;;;8.50;99.90;;;;;;5029996;28;20064;-69
2023/09/14 06:12:41;;;;;;;0.13;0.13;;;8.60;99.90;;;;;;5052684;28;20044;-69
2023/09/14 06:15:06;;;;;;;0.08;0.08;;;8.70;99.90;;;;;;5046196;28;20052;-69
2023/09/14 06:17:32;;;;;;;0.30;0.30;;;8.70;99.90;;;;;;5046946;28;20460;-69
2023/09/14 06:19:57;;;;;;;0.00;0.00;;;8.80;99.90;;;;;;5053248;28;20475;-69
2023/09/14 06:22:23;;;;;;;0.05;0.05;;;8.90;99.90;;;;;;5019833;28;20037;-69
2023/09/14 06:24:49;;;;;;;0.00;0.00;;;8.90;99.90;;;;;;5038995;28;20083;-69
2023/09/14 06:27:14;;;;;;;0.10;0.10;;;9.00;99.90;;;;;;5032825;28;20044;-69
2023/09/14 06:29:40;;;;;;;0.00;0.00;;;9.10;99.90;;;;;;5045506;28;20523;-69
2023/09/14 06:32:05;;;;;;;0.00;0.00;;;9.10;99.90;;;;;;5049754;28;20070;-69
2023/09/14 06:34:31;;;;;;;0.00;0.00;;;9.20;99.90;;;;;;5038022;28;20132;-69
2023/09/14 06:36:56;;;;;;;1.08;0.40;;;9.30;99.90;;;;;;5035229;28;20084;-69
2023/09/14 06:39:22;;;;;;;0.00;0.00;;;9.40;99.90;;;;;;5061150;28;20072;-69
2023/09/14 06:41:48;;;;;;;0.10;0.10;;;9.40;99.90;;;;;;5040990;28;20063;-69
2023/09/14 06:44:18;;;;;;;0.03;0.03;;;9.50;99.90;;;;;;5047615;28;20091;-69
2023/09/14 06:46:47;;;;;;;0.30;0.30;;;9.60;99.90;;;;;;5068777;28;20051;-68
2023/09/14 06:49:12;;;;;;;0.00;0.00;;;9.60;99.90;;;;;;5031862;28;20145;-68
2023/09/14 06:51:38;;;;;;;0.10;0.10;;;9.80;99.90;;;;;;5073321;28;20115;-69
2023/09/14 06:54:05;;;;;;;0.00;0.00;;;9.90;99.90;;;;;;5050709;28;20048;-68
2023/09/14 06:56:31;;;;;;;0.00;0.00;;;10.00;99.90;;;;;;5043317;28;20124;-68
2023/09/14 06:58:57;;;;;;;0.10;0.10;;;10.00;99.90;;;;;;5042915;28;20037;-68
2023/09/14 07:01:23;;;;;;;0.00;0.00;;;10.20;99.90;;;;;;5045551;28;20458;-68
2023/09/14 07:03:51;;;;;;;0.00;0.00;;;10.30;99.90;;;;;;5053005;28;20048;-68
2023/09/14 07:06:17;;;;;;;0.00;0.00;;;10.50;99.90;;;;;;5045262;28;20048;-69
2023/09/14 07:08:42;;;;;;;0.00;0.00;;;10.50;99.90;;;;;;5034028;28;20037;-68
2023/09/14 07:11:09;;;;;;;0.00;0.00;;;10.70;99.90;;;;;;5031532;28;20045;-68
2023/09/14 07:13:34;;;;;;;0.00;0.00;;;10.80;99.90;;;;;;5032163;28;20044;-69
2023/09/14 07:16:03;;;;;;;0.00;0.00;;;11.00;99.90;;;;;;5050443;28;20564;-69
2023/09/14 07:18:30;;;;;;;0.00;0.00;;;11.00;99.90;;;;;;5037874;28;20080;-69
2023/09/14 07:20:57;;;;;;;0.00;0.00;;;11.20;99.90;;;;;;5048324;28;20048;-70
2023/09/14 07:23:27;;;;;;;0.10;0.10;;;11.30;99.90;;;;;;5051153;28;20072;-70
2023/09/14 07:25:53;;;;;;;0.00;0.00;;;11.50;99.90;;;;;;5047768;28;20116;-70
2023/09/14 07:28:19;;;;;;;0.00;0.00;;;11.60;99.90;;;;;;5042144;28;20128;-70
2023/09/14 07:30:47;;;;;;;0.03;0.03;;;11.70;99.90;;;;;;5047442;28;20116;-69
2023/09/14 07:33:13;;;;;;;0.10;0.10;;;11.80;99.90;;;;;;5036312;28;20037;-69
2023/09/14 07:35:39;;;;;;;0.00;0.00;;;11.90;99.90;;;;;;5049688;28;20135;-69
2023/09/14 07:38:09;;;;;;;0.20;0.20;;;12.00;99.90;;;;;;5042459;28;20055;-69
2023/09/14 07:40:37;;;;;;;0.10;0.10;;;12.10;99.90;;;;;;5049918;28;20497;-69
2023/09/14 07:43:02;;;;;;;0.10;0.10;;;12.20;99.90;;;;;;5025834;28;20044;-68
2023/09/14 07:45:34;;;;;;;0.10;0.10;;;12.30;99.90;;;;;;5068895;28;20037;-68
2023/09/14 07:48:01;;;;;;;0.00;0.00;;;12.40;99.90;;;;;;5033980;28;20037;-68
2023/09/14 07:50:27;;;;;;;0.10;0.10;;;12.50;99.90;;;;;;5050913;28;20044;-68
2023/09/14 07:52:52;;;;;;;0.22;0.22;;;12.60;99.90;;;;;;5040270;28;20043;-68
2023/09/14 07:55:18;;;;;;;0.00;0.00;;;12.70;99.90;;;;;;5052553;28;20052;-68
2023/09/14 07:57:44;;;;;;;0.00;0.00;;;12.90;99.90;;;;;;5031924;28;20407;-68
2023/09/14 08:00:10;;;;;;;0.03;0.03;;;13.00;99.90;;;;;;5031941;28;20620;-67
2023/09/14 08:02:35;;;;;;;0.10;0.10;;;13.10;99.90;;;;;;5044806;28;20456;-68
2023/09/14 08:05:01;;;;;;;0.03;0.03;;;13.10;99.90;;;;;;5035522;28;20037;-68
2023/09/14 08:07:27;;;;;;;0.47;0.08;;;13.20;99.90;;;;;;5045956;28;20514;-67
2023/09/14 08:09:52;;;;;;;0.20;0.20;;;13.30;99.90;;;;;;5051007;28;20040;-68
2023/09/14 08:12:18;;;;;;;0.20;0.20;;;13.40;99.90;;;;;;5041104;28;20049;-68
2023/09/14 08:14:44;;;;;;;0.17;0.15;;;13.50;99.90;;;;;;5035406;28;20048;-68
2023/09/14 08:17:11;;;;;;;0.00;0.00;;;13.70;99.90;;;;;;5043584;28;20040;-68
2023/09/14 08:19:36;;;;;;;0.20;0.20;;;13.80;99.90;;;;;;5053941;28;20044;-68
2023/09/14 08:22:03;;;;;;;0.10;0.10;;;13.90;99.90;;;;;;5046911;28;20040;-68
2023/09/14 08:24:29;;;;;;;0.22;0.22;;;14.00;99.90;;;;;;5047106;28;20070;-68
2023/09/14 08:26:55;;;;;;;0.10;0.10;;;14.10;99.90;;;;;;5034914;28;20044;-68
2023/09/14 08:29:21;;;;;;;0.00;0.00;;;14.10;99.90;;;;;;5035680;28;20049;-68
2023/09/14 08:31:49;;;;;;;0.25;0.25;;;14.20;99.90;;;;;;5043609;28;20028;-68
2023/09/14 08:34:14;;;;;;;0.00;0.00;;;14.30;99.90;;;;;;5050565;28;20518;-68
2023/09/14 08:36:40;;;;;;;0.47;0.28;;;14.40;99.90;;;;;;5049723;28;20397;-68
2023/09/14 08:39:05;;;;;;;0.10;0.03;;;14.50;99.90;;;;;;5052583;28;20491;-68
2023/09/14 08:41:40;;;;;;;0.10;0.10;;;14.60;99.90;;;;;;5046188;28;20040;-67
2023/09/14 08:44:07;;;;;;;0.00;0.00;;;14.70;99.90;;;;;;5063755;28;20045;-68
2023/09/14 08:46:34;;;;;;;0.10;0.10;;;14.80;99.90;;;;;;5059476;28;20361;-68
2023/09/14 08:49:05;;;;;;;0.10;0.10;;;14.80;99.90;;;;;;5036202;28;20049;-68
2023/09/14 08:51:33;;;;;;;0.00;0.00;;;15.00;99.90;;;;;;5041083;28;20384;-69
2023/09/14 08:53:59;;;;;;;0.10;0.00;;;15.00;99.90;;;;;;5051741;28;20040;-68
2023/09/14 08:56:26;;;;;;;0.10;0.10;;;15.10;99.90;;;;;;5048881;28;20525;-68
2023/09/14 08:58:52;;;;;;;0.00;0.00;;;15.20;99.90;;;;;;5035490;28;20040;-68
2023/09/14 09:01:18;;;;;;;0.10;0.10;;;15.30;99.90;;;;;;5035394;28;20037;-68
2023/09/14 09:03:44;;;;;;;0.15;0.15;;;15.30;99.90;;;;;;5037636;28;20033;-69
2023/09/14 09:06:13;;;;;;;0.00;0.00;;;15.40;99.90;;;;;;5047207;28;20438;-68
2023/09/14 09:08:38;;;;;;;0.10;0.10;;;15.50;99.90;;;;;;5042433;28;20044;-69
2023/09/14 09:11:05;;;;;;;0.00;0.00;;;15.60;99.90;;;;;;5052848;28;20060;-69
2023/09/14 09:13:35;;;;;;;0.10;0.10;;;15.60;99.90;;;;;;5041300;28;20402;-69
2023/09/14 09:16:01;;;;;;;0.00;0.00;;;15.70;99.90;;;;;;5046789;28;20467;-69
2023/09/14 09:18:27;;;;;;;0.30;0.30;;;15.70;99.90;;;;;;5040276;28;20067;-69
2023/09/14 09:20:52;;;;;;;0.00;0.00;;;15.80;99.90;;;;;;5045089;28;20076;-69
2023/09/14 09:23:21;;;;;;;0.20;0.17;;;15.80;99.90;;;;;;5047621;28;20041;-69
2023/09/14 09:25:48;;;;;;;0.00;0.00;;;15.90;99.90;;;;;;5040777;28;20072;-69
2023/09/14 09:28:14;;;;;;;0.05;0.05;;;16.00;99.90;;;;;;5047339;28;20040;-69
2023/09/14 09:30:40;;;;;;;0.00;0.00;;;16.00;99.90;;;;;;5052707;28;20039;-69
2023/09/14 09:33:07;;;;;;;0.00;0.00;;;16.10;99.90;;;;;;5054077;28;20089;-69
2023/09/14 09:35:34;;;;;;;0.00;0.00;;;16.10;99.90;;;;;;5049412;28;20101;-69
2023/09/14 09:38:10;;;;;;;0.10;0.10;;;16.20;99.90;;;;;;5048931;28;20052;-69
2023/09/14 09:40:43;;;;;;;0.10;0.10;;;16.30;99.90;;;;;;5053149;28;20441;-69
2023/09/14 09:43:09;;;;;;;0.00;0.00;;;16.30;99.90;;;;;;5035309;28;20129;-69
2023/09/14 09:45:40;;;;;;;0.10;0.10;;;16.40;99.90;;;;;;5035225;28;20133;-69
2023/09/14 09:48:06;;;;;;;0.00;0.00;;;16.40;99.90;;;;;;5069198;28;20651;-70
2023/09/14 09:50:32;;;;;;;0.00;0.00;;;16.50;99.90;;;;;;5074595;28;20043;-69
2023/09/14 09:52:57;;;;;;;0.20;0.20;;;16.50;99.90;;;;;;5043706;28;20127;-70
2023/09/14 09:55:25;;;;;;;0.00;0.00;;;16.60;99.90;;;;;;5035534;28;20041;-70
2023/09/14 09:57:52;;;;;;;2.90;0.13;;;16.60;99.90;;;;;;5080851;28;20040;-69
2023/09/14 10:00:19;;;;;;;0.10;0.10;;;16.70;99.90;;;;;;5042498;28;20129;-70
2023/09/14 10:02:46;;;;;;;0.00;0.00;;;16.70;99.90;;;;;;5036611;28;20756;-70
2023/09/14 10:05:12;;;;;;;0.00;0.00;;;16.80;99.90;;;;;;5051599;28;20062;-70
2023/09/14 10:07:40;;;;;;;0.05;0.05;;;16.80;99.90;;;;;;5041905;28;20037;-70
2023/09/14 10:10:07;;;;;;;1.55;0.20;;;16.90;99.90;;;;;;5041529;28;20040;-70
2023/09/14 10:12:39;;;;;;;0.32;0.20;;;17.00;99.90;;;;;;5037988;28;20048;-70
2023/09/14 10:15:06;;;;;;;0.00;0.00;;;17.00;99.90;;;;;;5034470;28;20045;-70
2023/09/14 10:17:32;;;;;;;0.55;0.20;;;17.10;99.90;;;;;;5043069;28;20348;-70
2023/09/14 10:20:00;;;;;;;0.10;0.10;;;17.10;99.90;;;;;;5051567;28;20428;-70
2023/09/14 10:22:27;;;;;;;0.17;0.10;;;17.10;99.90;;;;;;5040950;28;20041;-70
2023/09/14 10:24:54;;;;;;;0.10;0.10;;;17.20;99.90;;;;;;5038441;28;20125;-70
2023/09/14 10:27:20;;;;;;;0.10;0.10;;;17.20;99.90;;;;;;5051215;28;20119;-70
2023/09/14 10:29:47;;;;;;;0.10;0.10;;;17.20;99.90;;;;;;5046693;28;20119;-69
2023/09/14 10:32:15;;;;;;;0.10;0.10;;;17.20;99.90;;;;;;5045969;28;20044;-70
2023/09/14 10:34:41;;;;;;;0.05;0.05;;;17.30;99.90;;;;;;5033545;28;20487;-70
2023/09/14 10:37:10;;;;;;;0.00;0.00;;;17.30;99.90;;;;;;5037316;28;20060;-70
2023/09/14 10:39:37;;;;;;;0.13;0.13;;;17.40;99.90;;;;;;5040356;28;20055;-69
2023/09/14 10:42:03;;;;;;;0.08;0.08;;;17.40;99.90;;;;;;5047514;28;20492;-71
2023/09/14 10:44:29;;;;;;;0.25;0.15;;;17.40;99.90;;;;;;5052175;28;20114;-70
2023/09/14 10:46:58;;;;;;;0.22;0.10;;;17.60;99.90;;;;;;5036955;28;20036;-70
2023/09/14 10:49:27;;;;;;;0.00;0.00;;;17.60;99.90;;;;;;5045975;28;20052;-70
2023/09/14 10:51:54;;;;;;;0.30;0.25;;;17.60;99.90;;;;;;5040291;28;20080;-70
2023/09/14 10:54:24;;;;;;;0.20;0.20;;;17.60;99.90;;;;;;5016695;28;20048;-69
2023/09/14 10:56:55;;;;;;;0.00;0.00;;;17.60;99.90;;;;;;5030525;28;20047;-71
2023/09/14 10:59:42;;;;;;;0.20;0.20;;;17.70;99.90;;;;;;5034861;28;20094;-70
2023/09/14 11:02:07;;;;;;;7.03;0.30;;;17.80;99.90;;;;;;5032381;28;20045;-70
2023/09/14 11:04:33;;;;;;;0.00;0.00;;;17.80;99.90;;;;;;5042014;28;20513;-69
2023/09/14 11:06:59;;;;;;;0.22;0.22;;;17.90;99.90;;;;;;5045593;28;20776;-70
2023/09/14 11:09:25;;;;;;;0.00;0.00;;;17.90;99.90;;;;;;5031478;28;20411;-70
2023/09/14 11:11:50;;;;;;;0.10;0.10;;;18.00;99.90;;;;;;5039959;28;20056;-70
2023/09/14 11:14:17;;;;;;;0.10;0.10;;;18.10;99.90;;;;;;5041226;28;20037;-69
2023/09/14 11:16:57;;;;;;;0.00;0.00;;;18.30;99.90;;;;;;5031541;28;20051;-70
2023/09/14 11:19:29;;;;;;;2.30;0.40;;;18.40;99.90;;;;;;5066076;28;20045;-70
2023/09/14 11:21:54;;;;;;;0.10;0.03;;;18.30;99.90;;;;;;5039956;28;20036;-70
2023/09/14 11:24:32;;;;;;;0.30;0.30;;;18.20;99.90;;;;;;5050262;28;20039;-71
2023/09/14 11:26:58;;;;;;;0.30;0.30;;;18.00;99.90;;;;;;5039028;28;20043;-70
2023/09/14 11:29:27;;;;;;;0.08;0.08;;;17.90;99.90;;;;;;5038469;28;20402;-70
2023/09/14 11:32:01;;;;;;;0.10;0.10;;;17.80;99.90;;;;;;5049883;28;20682;-70
2023/09/14 11:34:29;;;;;;;0.20;0.10;;;17.70;99.90;;;;;;5047187;28;20037;-70
2023/09/14 11:36:58;;;;;;;0.00;0.00;;;17.70;99.90;;;;;;5046079;28;20045;-70
2023/09/14 11:39:24;;;;;;;0.10;0.10;;;17.70;99.90;;;;;;5042890;28;20061;-70
2023/09/14 11:41:49;;;;;;;0.00;0.00;;;17.60;99.90;;;;;;5040006;28;20037;-70
2023/09/14 11:44:18;;;;;;;0.10;0.10;;;17.70;99.90;;;;;;5050193;28;20033;-71
2023/09/14 11:46:47;;;;;;;2.17;0.57;;;17.70;99.90;;;;;;5040442;28;20053;-71
2023/09/14 11:49:18;;;;;;;0.00;0.00;;;17.70;99.90;;;;;;5060427;28;20395;-70
2023/09/14 11:51:44;;;;;;;0.00;0.00;;;17.70;99.90;;;;;;5046797;28;20045;-71
2023/09/14 11:54:10;;;;;;;0.00;0.00;;;17.60;99.90;;;;;;5044893;28;20043;-70
2023/09/14 11:56:36;;;;;;;0.13;0.13;;;17.60;99.90;;;;;;5047073;28;20036;-70
2023/09/14 11:59:02;;;;;;;0.20;0.20;;;17.60;99.90;;;;;;5043033;28;20392;-71
2023/09/14 12:01:34;;;;;;;0.10;0.10;;;17.60;99.90;;;;;;5038265;28;20040;-71
2023/09/14 12:04:02;;;;;;;0.10;0.10;;;17.70;99.90;;;;;;5049611;28;20549;-70
2023/09/14 12:06:28;;;;;;;0.10;0.10;;;17.80;99.90;;;;;;5047645;28;20120;-70
2023/09/14 12:08:54;;;;;;;0.00;0.00;;;18.10;99.90;;;;;;5048653;28;20124;-70
2023/09/14 12:11:22;;;;;;;0.10;0.10;;;18.30;99.90;;;;;;5040107;28;20040;-70
2023/09/14 12:13:55;;;;;;;0.10;0.10;;;18.50;99.90;;;;;;5083944;28;20426;-71
2023/09/14 12:16:22;;;;;;;0.10;0.10;;;18.60;99.90;;;;;;5083499;28;20082;-71
2023/09/14 12:18:49;;;;;;;0.00;0.00;;;18.70;99.90;;;;;;5038695;28;20037;-71
2023/09/14 12:21:15;;;;;;;0.40;0.40;;;18.80;99.90;;;;;;5044793;28;20074;-71
2023/09/14 12:23:44;;;;;;;0.10;0.10;;;18.80;99.90;;;;;;5050490;28;20045;-71
2023/09/14 12:26:13;;;;;;;0.10;0.10;;;18.80;99.90;;;;;;5039810;28;20040;-72
2023/09/14 12:28:40;;;;;;;1.08;0.70;;;18.80;99.90;;;;;;5021980;28;20041;-71
2023/09/14 12:31:08;;;;;;;0.10;0.10;;;18.70;99.90;;;;;;5072592;28;20517;-71
2023/09/14 12:33:33;;;;;;;0.10;0.10;;;18.70;99.90;;;;;;5040713;28;20518;-71
2023/09/14 12:35:59;;;;;;;0.10;0.10;;;18.50;99.90;;;;;;5037432;28;20127;-72
2023/09/14 12:38:25;;;;;;;1.13;0.28;;;18.30;99.90;;;;;;5052736;28;20040;-71
2023/09/14 12:40:51;;;;;;;0.20;0.20;;;18.20;99.90;;;;;;5050217;28;20058;-71
2023/09/14 12:43:18;;;;;;;0.00;0.00;;;18.20;99.90;;;;;;5034823;28;20049;-71
2023/09/14 12:45:43;;;;;;;0.10;0.10;;;18.20;99.90;;;;;;5040841;28;20522;-72
2023/09/14 12:48:09;;;;;;;0.10;0.10;;;18.40;99.90;;;;;;5060016;28;20041;-72
2023/09/14 12:50:35;;;;;;;0.40;0.40;;;18.40;99.90;;;;;;5042763;28;20033;-71